sensor_id;sensor_type;location;lat;lon;timestamp;P1;durP1;ratioP1;P2;durP2;ratioP2
18445;SDS011;9352;50.888;4.466;2024-02-14T00:02:27;4.88;;;3.92;;
18445;SDS011;9352;50.888;4.466;2024-02-14T00:04:54;4.07;;;3.58;;
18445;SDS011;9352;50.888;4.466;2024-02-14T00:07:21;8.65;;;3.72;;
18445;SDS011;9352;50.888;4.466;2024-02-14T00:09:48;5.03;;;3.58;;
18445;SDS011;9352;50.888;4.466;2024-02-14T00:12:15;6.95;;;3.40;;
18445;SDS011;9352;50.888;4.466;2024-02-14T00:14:42;5.03;;;3.40;;
18445;SDS011;9352;50.888;4.466;2024-02-14T00:17:10;5.22;;;3.60;;
18445;SDS011;9352;50.888;4.466;2024-02-14T00:19:37;5.65;;;3.30;;
18445;SDS011;9352;50.888;4.466;2024-02-14T00:22:04;6.78;;;3.83;;
18445;SDS011;9352;50.888;4.466;2024-02-14T00:24:32;6.03;;;3.03;;
18445;SDS011;9352;50.888;4.466;2024-02-14T00:27:00;8.77;;;3.50;;
18445;SDS011;9352;50.888;4.466;2024-02-14T00:29:28;6.45;;;4.10;;
18445;SDS011;9352;50.888;4.466;2024-02-14T00:31:55;4.45;;;3.63;;
18445;SDS011;9352;50.888;4.466;2024-02-14T00:34:23;6.20;;;3.75;;
18445;SDS011;9352;50.888;4.466;2024-02-14T00:36:50;7.70;;;3.80;;
18445;SDS011;9352;50.888;4.466;2024-02-14T00:39:17;5.72;;;3.40;;
18445;SDS011;9352;50.888;4.466;2024-02-14T00:41:45;8.18;;;3.30;;
18445;SDS011;9352;50.888;4.466;2024-02-14T00:44:12;4.13;;;3.58;;
18445;SDS011;9352;50.888;4.466;2024-02-14T00:46:41;4.70;;;3.60;;
18445;SDS011;9352;50.888;4.466;2024-02-14T00:49:08;7.38;;;3.75;;
18445;SDS011;9352;50.888;4.466;2024-02-14T00:51:37;7.22;;;3.50;;
18445;SDS011;9352;50.888;4.466;2024-02-14T00:54:05;5.90;;;3.38;;
18445;SDS011;9352;50.888;4.466;2024-02-14T00:56:32;6.78;;;3.63;;
18445;SDS011;9352;50.888;4.466;2024-02-14T00:58:59;6.22;;;3.70;;
18445;SDS011;9352;50.888;4.466;2024-02-14T01:01:26;8.43;;;3.97;;
18445;SDS011;9352;50.888;4.466;2024-02-14T01:03:53;5.68;;;3.55;;
18445;SDS011;9352;50.888;4.466;2024-02-14T01:06:20;4.85;;;3.53;;
18445;SDS011;9352;50.888;4.466;2024-02-14T01:08:48;8.13;;;3.83;;
18445;SDS011;9352;50.888;4.466;2024-02-14T01:11:15;6.60;;;3.65;;
18445;SDS011;9352;50.888;4.466;2024-02-14T01:13:42;5.97;;;3.45;;
18445;SDS011;9352;50.888;4.466;2024-02-14T01:16:08;5.05;;;3.75;;
18445;SDS011;9352;50.888;4.466;2024-02-14T01:18:35;5.68;;;3.97;;
18445;SDS011;9352;50.888;4.466;2024-02-14T01:21:02;11.05;;;3.88;;
18445;SDS011;9352;50.888;4.466;2024-02-14T01:23:31;5.68;;;3.97;;
18445;SDS011;9352;50.888;4.466;2024-02-14T01:25:59;6.57;;;3.88;;
18445;SDS011;9352;50.888;4.466;2024-02-14T01:28:27;11.60;;;3.83;;
18445;SDS011;9352;50.888;4.466;2024-02-14T01:30:54;9.93;;;4.40;;
18445;SDS011;9352;50.888;4.466;2024-02-14T01:33:22;7.28;;;4.10;;
18445;SDS011;9352;50.888;4.466;2024-02-14T01:35:49;8.65;;;4.50;;
18445;SDS011;9352;50.888;4.466;2024-02-14T01:38:15;6.45;;;4.20;;
18445;SDS011;9352;50.888;4.466;2024-02-14T01:40:42;10.10;;;4.28;;
18445;SDS011;9352;50.888;4.466;2024-02-14T01:43:11;6.03;;;3.90;;
18445;SDS011;9352;50.888;4.466;2024-02-14T01:45:39;6.50;;;4.30;;
18445;SDS011;9352;50.888;4.466;2024-02-14T01:48:06;8.95;;;4.63;;
18445;SDS011;9352;50.888;4.466;2024-02-14T01:50:33;9.73;;;4.43;;
18445;SDS011;9352;50.888;4.466;2024-02-14T01:53:01;12.40;;;4.68;;
18445;SDS011;9352;50.888;4.466;2024-02-14T01:55:29;9.18;;;4.55;;
18445;SDS011;9352;50.888;4.466;2024-02-14T01:57:57;8.32;;;4.60;;
18445;SDS011;9352;50.888;4.466;2024-02-14T02:00:26;6.88;;;4.80;;
18445;SDS011;9352;50.888;4.466;2024-02-14T02:02:54;9.38;;;4.40;;
18445;SDS011;9352;50.888;4.466;2024-02-14T02:05:21;7.55;;;4.68;;
18445;SDS011;9352;50.888;4.466;2024-02-14T02:07:47;12.43;;;5.70;;
18445;SDS011;9352;50.888;4.466;2024-02-14T02:10:15;9.25;;;5.32;;
18445;SDS011;9352;50.888;4.466;2024-02-14T02:12:42;8.68;;;5.15;;
18445;SDS011;9352;50.888;4.466;2024-02-14T02:15:09;10.65;;;5.40;;
18445;SDS011;9352;50.888;4.466;2024-02-14T02:17:39;15.88;;;5.40;;
18445;SDS011;9352;50.888;4.466;2024-02-14T02:20:07;11.68;;;4.60;;
18445;SDS011;9352;50.888;4.466;2024-02-14T02:22:34;10.48;;;5.10;;
18445;SDS011;9352;50.888;4.466;2024-02-14T02:25:03;17.13;;;5.22;;
18445;SDS011;9352;50.888;4.466;2024-02-14T02:27:32;10.65;;;5.10;;
18445;SDS011;9352;50.888;4.466;2024-02-14T02:30:03;11.13;;;5.07;;
18445;SDS011;9352;50.888;4.466;2024-02-14T02:32:30;8.32;;;4.95;;
18445;SDS011;9352;50.888;4.466;2024-02-14T02:34:57;13.05;;;5.22;;
18445;SDS011;9352;50.888;4.466;2024-02-14T02:37:25;11.30;;;5.30;;
18445;SDS011;9352;50.888;4.466;2024-02-14T02:39:54;10.50;;;5.25;;
18445;SDS011;9352;50.888;4.466;2024-02-14T02:42:23;9.70;;;5.60;;
18445;SDS011;9352;50.888;4.466;2024-02-14T02:44:50;11.65;;;5.13;;
18445;SDS011;9352;50.888;4.466;2024-02-14T02:47:17;11.15;;;5.03;;
18445;SDS011;9352;50.888;4.466;2024-02-14T02:49:44;9.38;;;5.25;;
18445;SDS011;9352;50.888;4.466;2024-02-14T02:52:11;9.70;;;5.38;;
18445;SDS011;9352;50.888;4.466;2024-02-14T02:54:38;11.07;;;5.38;;
18445;SDS011;9352;50.888;4.466;2024-02-14T02:57:06;11.00;;;5.32;;
18445;SDS011;9352;50.888;4.466;2024-02-14T02:59:34;13.00;;;6.03;;
18445;SDS011;9352;50.888;4.466;2024-02-14T03:02:01;14.30;;;5.80;;
18445;SDS011;9352;50.888;4.466;2024-02-14T03:04:32;8.90;;;5.70;;
18445;SDS011;9352;50.888;4.466;2024-02-14T03:06:59;14.25;;;5.70;;
18445;SDS011;9352;50.888;4.466;2024-02-14T03:09:32;12.18;;;6.05;;
18445;SDS011;9352;50.888;4.466;2024-02-14T03:11:59;11.93;;;6.18;;
18445;SDS011;9352;50.888;4.466;2024-02-14T03:14:28;14.02;;;6.45;;
18445;SDS011;9352;50.888;4.466;2024-02-14T03:16:58;16.55;;;6.88;;
18445;SDS011;9352;50.888;4.466;2024-02-14T03:19:26;20.10;;;6.80;;
18445;SDS011;9352;50.888;4.466;2024-02-14T03:21:53;19.95;;;7.57;;
18445;SDS011;9352;50.888;4.466;2024-02-14T03:24:20;14.95;;;7.10;;
18445;SDS011;9352;50.888;4.466;2024-02-14T03:26:47;14.77;;;7.32;;
18445;SDS011;9352;50.888;4.466;2024-02-14T03:29:16;14.45;;;7.32;;
18445;SDS011;9352;50.888;4.466;2024-02-14T03:31:44;14.18;;;7.40;;
18445;SDS011;9352;50.888;4.466;2024-02-14T03:34:12;15.55;;;7.75;;
18445;SDS011;9352;50.888;4.466;2024-02-14T03:36:39;19.17;;;7.80;;
18445;SDS011;9352;50.888;4.466;2024-02-14T03:39:06;21.90;;;7.80;;
18445;SDS011;9352;50.888;4.466;2024-02-14T03:41:33;18.42;;;7.40;;
18445;SDS011;9352;50.888;4.466;2024-02-14T03:44:00;18.77;;;7.93;;
18445;SDS011;9352;50.888;4.466;2024-02-14T03:46:28;11.57;;;7.32;;
18445;SDS011;9352;50.888;4.466;2024-02-14T03:48:55;18.75;;;8.07;;
18445;SDS011;9352;50.888;4.466;2024-02-14T03:51:24;18.38;;;7.88;;
18445;SDS011;9352;50.888;4.466;2024-02-14T03:53:51;16.23;;;8.07;;
18445;SDS011;9352;50.888;4.466;2024-02-14T03:56:18;20.85;;;8.20;;
18445;SDS011;9352;50.888;4.466;2024-02-14T03:58:45;17.25;;;8.15;;
18445;SDS011;9352;50.888;4.466;2024-02-14T04:01:12;17.02;;;8.50;;
18445;SDS011;9352;50.888;4.466;2024-02-14T04:03:39;17.75;;;7.53;;
18445;SDS011;9352;50.888;4.466;2024-02-14T04:06:06;20.05;;;8.43;;
18445;SDS011;9352;50.888;4.466;2024-02-14T04:08:34;19.75;;;8.70;;
18445;SDS011;9352;50.888;4.466;2024-02-14T04:11:01;18.70;;;8.73;;
18445;SDS011;9352;50.888;4.466;2024-02-14T04:13:28;17.85;;;8.40;;
18445;SDS011;9352;50.888;4.466;2024-02-14T04:15:55;17.85;;;7.75;;
18445;SDS011;9352;50.888;4.466;2024-02-14T04:18:22;16.38;;;7.78;;
18445;SDS011;9352;50.888;4.466;2024-02-14T04:20:48;22.10;;;8.00;;
18445;SDS011;9352;50.888;4.466;2024-02-14T04:23:16;21.77;;;8.55;;
18445;SDS011;9352;50.888;4.466;2024-02-14T04:25:45;19.08;;;8.45;;
18445;SDS011;9352;50.888;4.466;2024-02-14T04:28:13;19.17;;;9.10;;
18445;SDS011;9352;50.888;4.466;2024-02-14T04:30:40;19.25;;;8.98;;
18445;SDS011;9352;50.888;4.466;2024-02-14T04:33:08;16.35;;;8.30;;
18445;SDS011;9352;50.888;4.466;2024-02-14T04:35:36;20.67;;;8.10;;
18445;SDS011;9352;50.888;4.466;2024-02-14T04:38:03;19.98;;;8.25;;
18445;SDS011;9352;50.888;4.466;2024-02-14T04:40:30;17.17;;;8.15;;
18445;SDS011;9352;50.888;4.466;2024-02-14T04:42:58;22.25;;;8.25;;
18445;SDS011;9352;50.888;4.466;2024-02-14T04:45:25;17.23;;;8.25;;
18445;SDS011;9352;50.888;4.466;2024-02-14T04:47:52;25.23;;;8.90;;
18445;SDS011;9352;50.888;4.466;2024-02-14T04:50:19;18.27;;;8.32;;
18445;SDS011;9352;50.888;4.466;2024-02-14T04:52:46;18.27;;;8.55;;
18445;SDS011;9352;50.888;4.466;2024-02-14T04:55:13;14.77;;;8.40;;
18445;SDS011;9352;50.888;4.466;2024-02-14T04:57:40;20.25;;;8.73;;
18445;SDS011;9352;50.888;4.466;2024-02-14T05:00:09;19.15;;;8.60;;
18445;SDS011;9352;50.888;4.466;2024-02-14T05:02:37;18.52;;;8.55;;
18445;SDS011;9352;50.888;4.466;2024-02-14T05:05:04;22.25;;;9.35;;
18445;SDS011;9352;50.888;4.466;2024-02-14T05:07:33;17.27;;;8.75;;
18445;SDS011;9352;50.888;4.466;2024-02-14T05:10:00;15.05;;;8.57;;
18445;SDS011;9352;50.888;4.466;2024-02-14T05:12:27;20.77;;;9.40;;
18445;SDS011;9352;50.888;4.466;2024-02-14T05:14:54;16.85;;;9.68;;
18445;SDS011;9352;50.888;4.466;2024-02-14T05:17:22;21.75;;;9.43;;
18445;SDS011;9352;50.888;4.466;2024-02-14T05:19:49;24.30;;;9.60;;
18445;SDS011;9352;50.888;4.466;2024-02-14T05:22:16;21.48;;;9.80;;
18445;SDS011;9352;50.888;4.466;2024-02-14T05:24:43;23.90;;;9.85;;
18445;SDS011;9352;50.888;4.466;2024-02-14T05:27:11;21.67;;;9.98;;
18445;SDS011;9352;50.888;4.466;2024-02-14T05:29:38;21.75;;;9.98;;
18445;SDS011;9352;50.888;4.466;2024-02-14T05:32:05;17.85;;;9.82;;
18445;SDS011;9352;50.888;4.466;2024-02-14T05:34:35;19.00;;;10.00;;
18445;SDS011;9352;50.888;4.466;2024-02-14T05:37:03;29.90;;;11.00;;
18445;SDS011;9352;50.888;4.466;2024-02-14T05:39:30;16.35;;;9.20;;
18445;SDS011;9352;50.888;4.466;2024-02-14T05:41:57;19.35;;;9.50;;
18445;SDS011;9352;50.888;4.466;2024-02-14T05:44:24;19.73;;;9.10;;
18445;SDS011;9352;50.888;4.466;2024-02-14T05:46:52;24.10;;;10.02;;
18445;SDS011;9352;50.888;4.466;2024-02-14T05:49:20;18.10;;;10.00;;
18445;SDS011;9352;50.888;4.466;2024-02-14T05:51:49;25.80;;;9.52;;
18445;SDS011;9352;50.888;4.466;2024-02-14T05:54:17;19.90;;;9.52;;
18445;SDS011;9352;50.888;4.466;2024-02-14T05:56:44;23.58;;;9.95;;
18445;SDS011;9352;50.888;4.466;2024-02-14T05:59:12;16.40;;;9.00;;
18445;SDS011;9352;50.888;4.466;2024-02-14T06:01:39;18.67;;;9.05;;
18445;SDS011;9352;50.888;4.466;2024-02-14T06:04:06;22.55;;;9.38;;
18445;SDS011;9352;50.888;4.466;2024-02-14T06:06:33;19.80;;;9.38;;
18445;SDS011;9352;50.888;4.466;2024-02-14T06:09:01;22.00;;;8.55;;
18445;SDS011;9352;50.888;4.466;2024-02-14T06:11:34;14.55;;;8.38;;
18445;SDS011;9352;50.888;4.466;2024-02-14T06:14:03;20.77;;;9.15;;
18445;SDS011;9352;50.888;4.466;2024-02-14T06:16:30;20.63;;;9.10;;
18445;SDS011;9352;50.888;4.466;2024-02-14T06:18:58;19.88;;;8.90;;
18445;SDS011;9352;50.888;4.466;2024-02-14T06:21:25;20.13;;;9.02;;
18445;SDS011;9352;50.888;4.466;2024-02-14T06:23:52;18.77;;;9.20;;
18445;SDS011;9352;50.888;4.466;2024-02-14T06:26:20;18.15;;;7.97;;
18445;SDS011;9352;50.888;4.466;2024-02-14T06:28:47;21.13;;;8.88;;
18445;SDS011;9352;50.888;4.466;2024-02-14T06:31:19;19.25;;;8.85;;
18445;SDS011;9352;50.888;4.466;2024-02-14T06:33:46;21.30;;;8.95;;
18445;SDS011;9352;50.888;4.466;2024-02-14T06:36:13;17.48;;;8.63;;
18445;SDS011;9352;50.888;4.466;2024-02-14T06:38:39;18.80;;;8.65;;
18445;SDS011;9352;50.888;4.466;2024-02-14T06:41:06;21.63;;;8.77;;
18445;SDS011;9352;50.888;4.466;2024-02-14T06:43:35;20.77;;;8.93;;
18445;SDS011;9352;50.888;4.466;2024-02-14T06:46:04;21.67;;;9.13;;
18445;SDS011;9352;50.888;4.466;2024-02-14T06:48:31;22.23;;;8.60;;
18445;SDS011;9352;50.888;4.466;2024-02-14T06:50:59;21.60;;;8.32;;
18445;SDS011;9352;50.888;4.466;2024-02-14T06:53:25;21.90;;;8.70;;
18445;SDS011;9352;50.888;4.466;2024-02-14T06:55:52;18.15;;;7.80;;
18445;SDS011;9352;50.888;4.466;2024-02-14T06:58:19;19.73;;;9.05;;
18445;SDS011;9352;50.888;4.466;2024-02-14T07:00:47;19.67;;;8.77;;
18445;SDS011;9352;50.888;4.466;2024-02-14T07:03:14;20.88;;;9.05;;
18445;SDS011;9352;50.888;4.466;2024-02-14T07:05:41;22.40;;;9.20;;
18445;SDS011;9352;50.888;4.466;2024-02-14T07:08:08;20.88;;;8.77;;
18445;SDS011;9352;50.888;4.466;2024-02-14T07:10:35;20.33;;;9.25;;
18445;SDS011;9352;50.888;4.466;2024-02-14T07:13:02;20.52;;;9.05;;
18445;SDS011;9352;50.888;4.466;2024-02-14T07:15:29;19.95;;;8.85;;
18445;SDS011;9352;50.888;4.466;2024-02-14T07:17:57;19.83;;;8.73;;
18445;SDS011;9352;50.888;4.466;2024-02-14T07:20:24;19.52;;;8.98;;
18445;SDS011;9352;50.888;4.466;2024-02-14T07:22:52;20.73;;;8.40;;
18445;SDS011;9352;50.888;4.466;2024-02-14T07:25:21;25.50;;;8.82;;
18445;SDS011;9352;50.888;4.466;2024-02-14T07:27:48;22.92;;;8.88;;
18445;SDS011;9352;50.888;4.466;2024-02-14T07:30:15;14.90;;;8.27;;
18445;SDS011;9352;50.888;4.466;2024-02-14T07:32:43;24.33;;;8.52;;
18445;SDS011;9352;50.888;4.466;2024-02-14T07:35:11;14.57;;;8.18;;
18445;SDS011;9352;50.888;4.466;2024-02-14T07:37:39;19.45;;;8.88;;
18445;SDS011;9352;50.888;4.466;2024-02-14T07:40:07;23.58;;;8.00;;
18445;SDS011;9352;50.888;4.466;2024-02-14T07:42:36;15.93;;;8.45;;
18445;SDS011;9352;50.888;4.466;2024-02-14T07:45:03;15.15;;;8.25;;
18445;SDS011;9352;50.888;4.466;2024-02-14T07:47:30;19.83;;;8.75;;
18445;SDS011;9352;50.888;4.466;2024-02-14T07:49:57;18.38;;;9.57;;
18445;SDS011;9352;50.888;4.466;2024-02-14T07:52:26;22.08;;;9.38;;
18445;SDS011;9352;50.888;4.466;2024-02-14T07:54:53;17.88;;;8.70;;
18445;SDS011;9352;50.888;4.466;2024-02-14T07:57:20;16.17;;;8.43;;
18445;SDS011;9352;50.888;4.466;2024-02-14T07:59:48;17.80;;;8.75;;
18445;SDS011;9352;50.888;4.466;2024-02-14T08:02:15;19.95;;;8.98;;
18445;SDS011;9352;50.888;4.466;2024-02-14T08:04:41;22.02;;;8.73;;
18445;SDS011;9352;50.888;4.466;2024-02-14T08:07:08;18.42;;;8.25;;
18445;SDS011;9352;50.888;4.466;2024-02-14T08:09:37;14.05;;;7.78;;
18445;SDS011;9352;50.888;4.466;2024-02-14T08:12:05;23.20;;;8.45;;
18445;SDS011;9352;50.888;4.466;2024-02-14T08:14:32;17.92;;;7.90;;
18445;SDS011;9352;50.888;4.466;2024-02-14T08:16:59;20.80;;;8.90;;
18445;SDS011;9352;50.888;4.466;2024-02-14T08:19:26;19.58;;;7.90;;
18445;SDS011;9352;50.888;4.466;2024-02-14T08:21:53;21.83;;;8.63;;
18445;SDS011;9352;50.888;4.466;2024-02-14T08:24:23;19.50;;;8.63;;
18445;SDS011;9352;50.888;4.466;2024-02-14T08:26:52;17.65;;;8.57;;
18445;SDS011;9352;50.888;4.466;2024-02-14T08:29:19;19.70;;;8.80;;
18445;SDS011;9352;50.888;4.466;2024-02-14T08:31:46;19.23;;;8.82;;
18445;SDS011;9352;50.888;4.466;2024-02-14T08:34:14;18.88;;;8.73;;
18445;SDS011;9352;50.888;4.466;2024-02-14T08:36:41;18.75;;;9.32;;
18445;SDS011;9352;50.888;4.466;2024-02-14T08:39:08;22.17;;;9.38;;
18445;SDS011;9352;50.888;4.466;2024-02-14T08:41:36;17.65;;;9.23;;
18445;SDS011;9352;50.888;4.466;2024-02-14T08:44:04;20.00;;;9.68;;
18445;SDS011;9352;50.888;4.466;2024-02-14T08:46:31;24.10;;;9.68;;
18445;SDS011;9352;50.888;4.466;2024-02-14T08:48:59;23.88;;;9.90;;
18445;SDS011;9352;50.888;4.466;2024-02-14T08:51:27;17.27;;;9.15;;
18445;SDS011;9352;50.888;4.466;2024-02-14T08:53:54;19.80;;;8.98;;
18445;SDS011;9352;50.888;4.466;2024-02-14T08:56:24;20.73;;;9.82;;
18445;SDS011;9352;50.888;4.466;2024-02-14T08:58:51;21.42;;;10.48;;
18445;SDS011;9352;50.888;4.466;2024-02-14T09:01:19;19.70;;;9.15;;
18445;SDS011;9352;50.888;4.466;2024-02-14T09:03:46;17.35;;;9.43;;
18445;SDS011;9352;50.888;4.466;2024-02-14T09:06:13;19.17;;;9.68;;
18445;SDS011;9352;50.888;4.466;2024-02-14T09:08:41;19.85;;;10.40;;
18445;SDS011;9352;50.888;4.466;2024-02-14T09:11:09;20.88;;;10.13;;
18445;SDS011;9352;50.888;4.466;2024-02-14T09:13:37;17.52;;;9.48;;
18445;SDS011;9352;50.888;4.466;2024-02-14T09:16:04;17.90;;;10.07;;
18445;SDS011;9352;50.888;4.466;2024-02-14T09:18:32;19.23;;;9.82;;
18445;SDS011;9352;50.888;4.466;2024-02-14T09:21:00;15.70;;;9.50;;
18445;SDS011;9352;50.888;4.466;2024-02-14T09:23:28;25.20;;;9.27;;
18445;SDS011;9352;50.888;4.466;2024-02-14T09:25:56;17.83;;;10.00;;
18445;SDS011;9352;50.888;4.466;2024-02-14T09:28:23;16.33;;;9.32;;
18445;SDS011;9352;50.888;4.466;2024-02-14T09:30:51;23.65;;;9.98;;
18445;SDS011;9352;50.888;4.466;2024-02-14T09:33:19;18.77;;;10.07;;
18445;SDS011;9352;50.888;4.466;2024-02-14T09:35:48;18.10;;;9.68;;
18445;SDS011;9352;50.888;4.466;2024-02-14T09:38:17;19.63;;;9.25;;
18445;SDS011;9352;50.888;4.466;2024-02-14T09:40:43;16.35;;;9.05;;
18445;SDS011;9352;50.888;4.466;2024-02-14T09:43:12;16.45;;;9.35;;
18445;SDS011;9352;50.888;4.466;2024-02-14T09:46:01;18.08;;;9.75;;
18445;SDS011;9352;50.888;4.466;2024-02-14T09:48:28;14.77;;;9.82;;
18445;SDS011;9352;50.888;4.466;2024-02-14T09:50:57;18.13;;;9.25;;
18445;SDS011;9352;50.888;4.466;2024-02-14T09:53:25;16.27;;;8.82;;
18445;SDS011;9352;50.888;4.466;2024-02-14T09:55:54;16.92;;;8.82;;
18445;SDS011;9352;50.888;4.466;2024-02-14T09:58:22;15.88;;;8.15;;
18445;SDS011;9352;50.888;4.466;2024-02-14T10:00:50;10.40;;;7.60;;
18445;SDS011;9352;50.888;4.466;2024-02-14T10:03:26;11.30;;;7.57;;
18445;SDS011;9352;50.888;4.466;2024-02-14T10:05:52;12.80;;;6.70;;
18445;SDS011;9352;50.888;4.466;2024-02-14T10:08:21;14.48;;;7.18;;
18445;SDS011;9352;50.888;4.466;2024-02-14T10:10:49;15.15;;;7.00;;
18445;SDS011;9352;50.888;4.466;2024-02-14T10:13:16;10.80;;;6.43;;
18445;SDS011;9352;50.888;4.466;2024-02-14T10:15:43;13.07;;;6.05;;
18445;SDS011;9352;50.888;4.466;2024-02-14T10:18:09;8.57;;;6.20;;
18445;SDS011;9352;50.888;4.466;2024-02-14T10:20:37;10.27;;;6.32;;
18445;SDS011;9352;50.888;4.466;2024-02-14T10:23:08;10.80;;;6.65;;
18445;SDS011;9352;50.888;4.466;2024-02-14T10:25:38;7.78;;;5.38;;
18445;SDS011;9352;50.888;4.466;2024-02-14T10:28:05;9.93;;;5.43;;
18445;SDS011;9352;50.888;4.466;2024-02-14T10:30:33;7.43;;;5.10;;
18445;SDS011;9352;50.888;4.466;2024-02-14T10:33:01;7.30;;;4.47;;
18445;SDS011;9352;50.888;4.466;2024-02-14T10:35:29;7.68;;;4.93;;
18445;SDS011;9352;50.888;4.466;2024-02-14T10:37:57;7.47;;;4.45;;
18445;SDS011;9352;50.888;4.466;2024-02-14T10:40:27;6.15;;;4.25;;
18445;SDS011;9352;50.888;4.466;2024-02-14T10:42:55;7.03;;;4.50;;
18445;SDS011;9352;50.888;4.466;2024-02-14T10:45:23;10.25;;;5.18;;
18445;SDS011;9352;50.888;4.466;2024-02-14T10:47:51;6.82;;;4.25;;
18445;SDS011;9352;50.888;4.466;2024-02-14T10:50:21;7.72;;;3.70;;
18445;SDS011;9352;50.888;4.466;2024-02-14T10:52:48;5.22;;;4.13;;
18445;SDS011;9352;50.888;4.466;2024-02-14T10:55:16;5.43;;;3.95;;
18445;SDS011;9352;50.888;4.466;2024-02-14T10:57:43;4.18;;;3.78;;
18445;SDS011;9352;50.888;4.466;2024-02-14T11:00:14;8.45;;;4.00;;
18445;SDS011;9352;50.888;4.466;2024-02-14T11:02:42;4.70;;;3.85;;
18445;SDS011;9352;50.888;4.466;2024-02-14T11:05:11;4.22;;;3.80;;
18445;SDS011;9352;50.888;4.466;2024-02-14T11:07:43;6.65;;;3.83;;
18445;SDS011;9352;50.888;4.466;2024-02-14T11:10:13;8.02;;;3.75;;
18445;SDS011;9352;50.888;4.466;2024-02-14T11:12:40;4.38;;;3.22;;
18445;SDS011;9352;50.888;4.466;2024-02-14T11:15:11;4.72;;;3.53;;
18445;SDS011;9352;50.888;4.466;2024-02-14T11:17:40;5.10;;;3.33;;
18445;SDS011;9352;50.888;4.466;2024-02-14T11:20:12;4.78;;;3.30;;
18445;SDS011;9352;50.888;4.466;2024-02-14T11:22:55;5.47;;;2.90;;
18445;SDS011;9352;50.888;4.466;2024-02-14T11:25:30;4.82;;;3.40;;
18445;SDS011;9352;50.888;4.466;2024-02-14T11:27:57;5.75;;;3.47;;
18445;SDS011;9352;50.888;4.466;2024-02-14T11:30:31;3.75;;;3.42;;
18445;SDS011;9352;50.888;4.466;2024-02-14T11:33:12;7.03;;;3.60;;
18445;SDS011;9352;50.888;4.466;2024-02-14T11:35:40;9.30;;;4.50;;
18445;SDS011;9352;50.888;4.466;2024-02-14T11:38:07;7.80;;;4.45;;
18445;SDS011;9352;50.888;4.466;2024-02-14T11:40:35;6.00;;;3.85;;
18445;SDS011;9352;50.888;4.466;2024-02-14T11:43:03;6.45;;;3.95;;
18445;SDS011;9352;50.888;4.466;2024-02-14T11:45:30;5.68;;;3.92;;
18445;SDS011;9352;50.888;4.466;2024-02-14T11:47:57;5.38;;;3.85;;
18445;SDS011;9352;50.888;4.466;2024-02-14T11:50:26;10.48;;;3.88;;
18445;SDS011;9352;50.888;4.466;2024-02-14T11:52:53;7.72;;;4.00;;
18445;SDS011;9352;50.888;4.466;2024-02-14T11:55:26;10.30;;;4.32;;
18445;SDS011;9352;50.888;4.466;2024-02-14T11:57:54;8.10;;;4.38;;
18445;SDS011;9352;50.888;4.466;2024-02-14T12:00:21;10.30;;;4.43;;
18445;SDS011;9352;50.888;4.466;2024-02-14T12:02:49;9.35;;;4.78;;
18445;SDS011;9352;50.888;4.466;2024-02-14T12:05:16;8.63;;;4.53;;
18445;SDS011;9352;50.888;4.466;2024-02-14T12:07:45;9.48;;;4.55;;
18445;SDS011;9352;50.888;4.466;2024-02-14T12:10:12;7.85;;;4.20;;
18445;SDS011;9352;50.888;4.466;2024-02-14T12:12:39;10.18;;;4.80;;
18445;SDS011;9352;50.888;4.466;2024-02-14T12:15:09;9.52;;;4.43;;
18445;SDS011;9352;50.888;4.466;2024-02-14T12:17:36;12.65;;;4.93;;
18445;SDS011;9352;50.888;4.466;2024-02-14T12:20:05;8.90;;;4.35;;
18445;SDS011;9352;50.888;4.466;2024-02-14T12:22:34;10.20;;;4.30;;
18445;SDS011;9352;50.888;4.466;2024-02-14T12:25:04;14.68;;;4.80;;
18445;SDS011;9352;50.888;4.466;2024-02-14T12:27:32;9.27;;;4.38;;
18445;SDS011;9352;50.888;4.466;2024-02-14T12:30:02;9.35;;;4.80;;
18445;SDS011;9352;50.888;4.466;2024-02-14T12:32:30;9.75;;;5.20;;
18445;SDS011;9352;50.888;4.466;2024-02-14T12:34:57;13.60;;;4.93;;
18445;SDS011;9352;50.888;4.466;2024-02-14T12:37:24;12.00;;;5.32;;
18445;SDS011;9352;50.888;4.466;2024-02-14T12:39:51;11.77;;;5.13;;
18445;SDS011;9352;50.888;4.466;2024-02-14T12:42:21;14.07;;;5.30;;
18445;SDS011;9352;50.888;4.466;2024-02-14T12:44:51;11.52;;;5.13;;
18445;SDS011;9352;50.888;4.466;2024-02-14T12:47:18;10.35;;;5.47;;
18445;SDS011;9352;50.888;4.466;2024-02-14T12:49:47;6.97;;;4.32;;
18445;SDS011;9352;50.888;4.466;2024-02-14T12:52:14;9.57;;;4.75;;
18445;SDS011;9352;50.888;4.466;2024-02-14T12:54:42;12.32;;;5.05;;
18445;SDS011;9352;50.888;4.466;2024-02-14T12:57:10;9.90;;;5.18;;
18445;SDS011;9352;50.888;4.466;2024-02-14T12:59:38;11.52;;;5.35;;
18445;SDS011;9352;50.888;4.466;2024-02-14T13:02:05;10.73;;;5.32;;
18445;SDS011;9352;50.888;4.466;2024-02-14T13:04:32;12.18;;;4.80;;
18445;SDS011;9352;50.888;4.466;2024-02-14T13:07:00;10.90;;;5.20;;
18445;SDS011;9352;50.888;4.466;2024-02-14T13:09:27;9.45;;;5.60;;
18445;SDS011;9352;50.888;4.466;2024-02-14T13:11:54;7.93;;;4.68;;
18445;SDS011;9352;50.888;4.466;2024-02-14T13:14:21;8.40;;;4.43;;
18445;SDS011;9352;50.888;4.466;2024-02-14T13:16:49;5.28;;;4.30;;
18445;SDS011;9352;50.888;4.466;2024-02-14T13:19:16;8.63;;;4.40;;
18445;SDS011;9352;50.888;4.466;2024-02-14T13:21:43;7.85;;;4.18;;
18445;SDS011;9352;50.888;4.466;2024-02-14T13:24:11;10.93;;;4.25;;
18445;SDS011;9352;50.888;4.466;2024-02-14T13:26:39;9.23;;;5.00;;
18445;SDS011;9352;50.888;4.466;2024-02-14T13:29:06;11.20;;;4.72;;
18445;SDS011;9352;50.888;4.466;2024-02-14T13:31:33;13.85;;;4.53;;
18445;SDS011;9352;50.888;4.466;2024-02-14T13:34:01;6.65;;;4.32;;
18445;SDS011;9352;50.888;4.466;2024-02-14T13:36:30;6.70;;;4.15;;
18445;SDS011;9352;50.888;4.466;2024-02-14T13:38:57;7.32;;;4.20;;
18445;SDS011;9352;50.888;4.466;2024-02-14T13:41:25;7.68;;;4.22;;
18445;SDS011;9352;50.888;4.466;2024-02-14T13:43:52;9.82;;;4.53;;
18445;SDS011;9352;50.888;4.466;2024-02-14T13:46:19;10.55;;;4.25;;
18445;SDS011;9352;50.888;4.466;2024-02-14T13:48:46;8.50;;;4.00;;
18445;SDS011;9352;50.888;4.466;2024-02-14T13:51:16;11.40;;;4.68;;
18445;SDS011;9352;50.888;4.466;2024-02-14T13:53:42;9.52;;;4.38;;
18445;SDS011;9352;50.888;4.466;2024-02-14T13:56:10;4.90;;;3.67;;
18445;SDS011;9352;50.888;4.466;2024-02-14T13:58:37;8.50;;;3.95;;
18445;SDS011;9352;50.888;4.466;2024-02-14T14:01:04;9.70;;;3.83;;
18445;SDS011;9352;50.888;4.466;2024-02-14T14:03:32;8.30;;;3.50;;
18445;SDS011;9352;50.888;4.466;2024-02-14T14:06:00;5.22;;;3.55;;
18445;SDS011;9352;50.888;4.466;2024-02-14T14:08:29;5.13;;;3.47;;
18445;SDS011;9352;50.888;4.466;2024-02-14T14:10:56;8.23;;;3.70;;
18445;SDS011;9352;50.888;4.466;2024-02-14T14:13:23;4.40;;;3.50;;
18445;SDS011;9352;50.888;4.466;2024-02-14T14:15:54;7.38;;;3.72;;
18445;SDS011;9352;50.888;4.466;2024-02-14T14:18:21;5.88;;;3.33;;
18445;SDS011;9352;50.888;4.466;2024-02-14T14:20:48;10.85;;;3.60;;
18445;SDS011;9352;50.888;4.466;2024-02-14T14:23:15;4.93;;;3.38;;
18445;SDS011;9352;50.888;4.466;2024-02-14T14:25:43;4.72;;;3.13;;
18445;SDS011;9352;50.888;4.466;2024-02-14T14:28:10;4.93;;;3.13;;
18445;SDS011;9352;50.888;4.466;2024-02-14T14:30:37;9.98;;;3.45;;
18445;SDS011;9352;50.888;4.466;2024-02-14T14:33:04;4.55;;;3.42;;
18445;SDS011;9352;50.888;4.466;2024-02-14T14:35:33;6.72;;;3.33;;
18445;SDS011;9352;50.888;4.466;2024-02-14T14:38:01;8.73;;;3.38;;
18445;SDS011;9352;50.888;4.466;2024-02-14T14:40:28;6.13;;;3.08;;
18445;SDS011;9352;50.888;4.466;2024-02-14T14:42:57;9.32;;;3.33;;
18445;SDS011;9352;50.888;4.466;2024-02-14T14:45:24;3.50;;;3.20;;
18445;SDS011;9352;50.888;4.466;2024-02-14T14:47:53;11.10;;;3.50;;
18445;SDS011;9352;50.888;4.466;2024-02-14T14:50:21;6.60;;;3.40;;
18445;SDS011;9352;50.888;4.466;2024-02-14T14:52:50;6.88;;;3.45;;
18445;SDS011;9352;50.888;4.466;2024-02-14T14:55:17;5.18;;;3.30;;
18445;SDS011;9352;50.888;4.466;2024-02-14T14:57:44;7.60;;;3.45;;